Time;durP1;ratioP1;P1;durP2;ratioP2;P2;SDS_P1;SDS_P2;PMS_P1;PMS_P2;Temp;Humidity;BMP_temperature;BMP_pressure;BME280_temperature;BME280_humidity;BME280_pressure;Samples;Min_cycle;Max_cycle;Signal;HPM_P1;HPM_P2
2022/04/18 00:00:07;;;;;;;3.50;1.38;;;7.40;73.60;;;;;;6197120;28;20527;-77
2022/04/18 00:03:09;;;;;;;3.42;0.95;;;7.40;73.50;;;;;;6196979;28;20050;-77
2022/04/18 00:06:12;;;;;;;5.28;1.23;;;7.30;73.40;;;;;;6197176;28;20125;-77
2022/04/18 00:09:17;;;;;;;4.47;1.40;;;7.30;73.30;;;;;;6196608;28;20054;-77
2022/04/18 00:12:19;;;;;;;1.65;0.90;;;7.30;73.10;;;;;;6197198;28;20420;-77
2022/04/18 00:15:20;;;;;;;3.20;1.13;;;7.30;73.50;;;;;;6201490;28;20050;-77
2022/04/18 00:18:22;;;;;;;2.92;1.63;;;7.20;73.60;;;;;;6204283;28;20069;-77
2022/04/18 00:21:25;;;;;;;3.58;1.13;;;7.20;73.60;;;;;;6217354;28;20133;-77
2022/04/18 00:24:27;;;;;;;3.47;1.55;;;7.20;73.80;;;;;;6226289;28;20137;-77
2022/04/18 00:27:29;;;;;;;2.63;1.20;;;7.10;74.10;;;;;;6228142;28;20042;-76
2022/04/18 00:30:31;;;;;;;2.30;1.70;;;7.10;74.30;;;;;;6225958;28;20104;-76
2022/04/18 00:33:33;;;;;;;2.25;1.13;;;7.10;74.40;;;;;;6225974;28;20042;-76
2022/04/18 00:36:36;;;;;;;4.05;1.33;;;7.00;74.30;;;;;;6226966;28;20057;-76
2022/04/18 00:39:38;;;;;;;7.55;1.83;;;7.00;74.90;;;;;;6225700;28;20080;-76
2022/04/18 00:42:43;;;;;;;3.17;1.27;;;6.90;75.20;;;;;;6225984;28;20060;-76
2022/04/18 00:45:45;;;;;;;4.97;2.00;;;6.90;76.50;;;;;;6216265;28;20045;-76
2022/04/18 00:48:48;;;;;;;4.15;2.40;;;6.80;76.20;;;;;;6225983;28;20050;-76
2022/04/18 00:51:52;;;;;;;2.67;1.10;;;6.70;76.30;;;;;;6225570;28;20089;-76
2022/04/18 00:54:56;;;;;;;3.50;1.48;;;6.70;76.90;;;;;;6225542;28;20526;-76
2022/04/18 00:58:01;;;;;;;3.60;1.50;;;6.60;77.10;;;;;;6225309;28;20052;-76
2022/04/18 01:01:03;;;;;;;2.88;1.27;;;6.60;77.50;;;;;;6225460;28;20049;-77
2022/04/18 01:04:05;;;;;;;2.97;1.40;;;6.50;77.50;;;;;;6226048;28;20649;-76
2022/04/18 01:07:09;;;;;;;3.13;1.55;;;6.50;77.60;;;;;;6225427;28;20050;-76
2022/04/18 01:10:11;;;;;;;2.83;1.65;;;6.40;78.60;;;;;;6225597;28;20053;-75
2022/04/18 01:13:13;;;;;;;2.58;1.42;;;6.50;79.00;;;;;;6225483;28;20056;-75
2022/04/18 01:16:15;;;;;;;2.42;1.40;;;6.40;79.00;;;;;;6226787;28;20060;-76
2022/04/18 01:19:18;;;;;;;2.60;1.70;;;6.40;78.80;;;;;;6224943;28;20050;-75
2022/04/18 01:22:22;;;;;;;2.30;1.52;;;6.40;78.80;;;;;;6225276;28;20046;-76
2022/04/18 01:29:01;;;;;;;8.07;1.55;;;6.30;80.10;;;;;;6225154;28;20050;-75
2022/04/18 01:32:03;;;;;;;3.42;1.48;;;6.30;80.40;;;;;;6225501;28;20060;-76
2022/04/18 01:35:06;;;;;;;2.50;1.42;;;6.30;80.90;;;;;;6224903;28;20060;-76
2022/04/18 01:38:09;;;;;;;6.28;1.60;;;6.30;81.20;;;;;;6224528;28;20042;-76
2022/04/18 01:41:11;;;;;;;2.50;1.63;;;6.30;81.30;;;;;;6224662;28;20058;-76
2022/04/18 01:44:12;;;;;;;2.53;1.33;;;6.40;81.30;;;;;;6225244;28;20054;-76
2022/04/18 01:47:14;;;;;;;5.35;2.00;;;6.40;80.90;;;;;;6224470;28;20207;-76
2022/04/18 01:50:16;;;;;;;8.18;3.60;;;6.40;80.80;;;;;;6224337;28;20057;-76
2022/04/18 01:53:19;;;;;;;4.60;1.95;;;6.50;80.40;;;;;;6224785;28;20046;-76
2022/04/18 01:56:21;;;;;;;3.17;2.13;;;6.60;79.80;;;;;;6225610;28;20057;-75
2022/04/18 01:59:23;;;;;;;3.38;1.75;;;6.70;79.20;;;;;;6223933;28;20046;-75
2022/04/18 02:02:25;;;;;;;3.95;1.58;;;6.70;78.80;;;;;;6224152;28;20046;-76
2022/04/18 02:05:27;;;;;;;5.65;1.40;;;6.70;78.60;;;;;;6224059;28;20495;-75
2022/04/18 02:08:30;;;;;;;4.05;1.73;;;6.70;78.30;;;;;;6223829;28;20450;-75
2022/04/18 02:11:32;;;;;;;2.28;1.27;;;6.70;78.10;;;;;;6223665;28;20049;-75
2022/04/18 02:14:34;;;;;;;3.03;1.77;;;6.80;78.00;;;;;;6223768;28;20423;-77
2022/04/18 02:17:36;;;;;;;3.85;1.40;;;6.80;77.90;;;;;;6223247;28;20419;-75
2022/04/18 02:20:38;;;;;;;3.72;1.95;;;6.80;77.80;;;;;;6223218;28;20131;-76
2022/04/18 02:23:41;;;;;;;3.20;1.65;;;6.80;78.00;;;;;;6199389;28;20066;-77
2022/04/18 02:26:43;;;;;;;2.78;1.73;;;6.70;78.10;;;;;;6203535;28;20049;-76
2022/04/18 02:29:44;;;;;;;2.90;1.70;;;6.70;78.50;;;;;;6215570;28;20049;-76
2022/04/18 02:32:49;;;;;;;3.00;1.90;;;6.70;79.10;;;;;;6223966;28;20056;-78
2022/04/18 02:35:51;;;;;;;3.60;1.90;;;6.60;79.00;;;;;;6223070;28;20052;-76
2022/04/18 02:38:54;;;;;;;4.03;2.08;;;6.60;79.00;;;;;;6222896;28;20046;-76
2022/04/18 02:41:57;;;;;;;3.08;1.90;;;6.50;79.00;;;;;;6223138;28;20434;-76
2022/04/18 02:44:59;;;;;;;2.60;1.73;;;6.50;78.80;;;;;;6223008;28;20177;-75
2022/04/18 02:48:01;;;;;;;2.97;1.70;;;6.50;78.90;;;;;;6223314;28;20140;-76
2022/04/18 02:51:03;;;;;;;3.67;1.70;;;6.40;78.80;;;;;;6222806;28;20123;-76
2022/04/18 02:54:06;;;;;;;2.55;1.52;;;6.40;78.70;;;;;;6222703;28;20050;-75
2022/04/18 02:57:07;;;;;;;5.40;2.05;;;6.50;78.50;;;;;;6222530;28;20053;-76
2022/04/18 03:00:10;;;;;;;4.22;1.70;;;6.50;78.30;;;;;;6222962;28;20057;-76
2022/04/18 03:03:12;;;;;;;5.53;2.38;;;6.50;78.50;;;;;;6222492;28;20050;-77
2022/04/18 03:06:13;;;;;;;7.07;2.35;;;6.50;78.70;;;;;;6222449;28;20052;-78
2022/04/18 03:09:19;;;;;;;3.58;1.80;;;6.40;79.00;;;;;;6222223;28;20066;-78
2022/04/18 03:12:21;;;;;;;4.32;2.17;;;6.30;79.10;;;;;;6223819;28;20070;-79
2022/04/18 03:15:22;;;;;;;3.80;1.75;;;6.30;79.00;;;;;;6208292;28;20042;-77
2022/04/18 03:18:24;;;;;;;3.20;2.00;;;6.30;79.40;;;;;;6219521;28;20045;-77
2022/04/18 03:21:26;;;;;;;2.85;1.88;;;6.20;79.60;;;;;;6221807;28;20049;-75
2022/04/18 03:24:29;;;;;;;6.32;2.15;;;6.20;80.50;;;;;;6221946;28;20493;-75
2022/04/18 03:27:31;;;;;;;2.97;2.13;;;6.10;80.70;;;;;;6222176;28;20412;-75
2022/04/18 03:30:33;;;;;;;4.18;2.35;;;6.00;80.90;;;;;;6221812;28;20053;-78
2022/04/18 03:33:34;;;;;;;4.13;1.80;;;5.90;80.60;;;;;;6222358;28;20073;-77
2022/04/18 03:39:57;;;;;;;8.30;2.75;;;5.80;81.30;;;;;;6221747;28;20045;-76
2022/04/18 03:42:58;;;;;;;10.40;2.08;;;5.70;81.40;;;;;;6221757;28;20065;-74
2022/04/18 03:46:00;;;;;;;6.13;2.03;;;5.60;82.10;;;;;;6221514;28;20418;-78
2022/04/18 03:49:02;;;;;;;3.55;1.92;;;5.50;82.90;;;;;;6220905;28;20099;-76
2022/04/18 03:52:04;;;;;;;4.03;1.90;;;5.40;83.70;;;;;;6222056;28;20053;-75
2022/04/18 03:55:08;;;;;;;4.97;2.20;;;5.30;84.20;;;;;;6221600;28;20046;-75
2022/04/18 03:58:09;;;;;;;3.70;2.03;;;5.20;84.10;;;;;;6221142;28;20038;-77
2022/04/18 04:01:11;;;;;;;5.65;1.98;;;5.20;84.30;;;;;;6221828;28;20050;-77
2022/04/18 04:04:13;;;;;;;3.55;1.80;;;5.10;84.10;;;;;;6222257;28;20099;-76
2022/04/18 04:07:15;;;;;;;6.47;1.98;;;5.10;84.30;;;;;;6221378;28;20050;-75
2022/04/18 04:10:18;;;;;;;2.53;1.85;;;5.00;84.70;;;;;;6221192;28;20050;-76
2022/04/18 04:13:19;;;;;;;3.85;2.33;;;5.00;84.90;;;;;;6221424;28;20121;-75
2022/04/18 04:16:21;;;;;;;9.77;2.75;;;5.00;84.90;;;;;;6221785;28;20188;-78
2022/04/18 04:19:23;;;;;;;3.63;1.90;;;4.90;84.80;;;;;;6220849;28;20042;-78
2022/04/18 04:22:25;;;;;;;3.63;1.85;;;4.90;84.80;;;;;;6221011;28;20048;-78
2022/04/18 04:25:28;;;;;;;4.43;2.70;;;4.90;84.80;;;;;;6215206;28;20046;-77
2022/04/18 04:28:30;;;;;;;4.72;2.00;;;4.90;84.90;;;;;;6221993;28;20068;-76
2022/04/18 04:31:32;;;;;;;5.82;1.30;;;4.90;84.90;;;;;;6221734;28;20061;-77
2022/04/18 04:34:33;;;;;;;4.55;2.28;;;5.00;86.00;;;;;;6221307;28;20050;-77
2022/04/18 04:37:35;;;;;;;6.78;2.83;;;5.10;85.80;;;;;;6220890;28;20046;-75
2022/04/18 04:40:38;;;;;;;3.97;2.13;;;5.10;85.30;;;;;;6221656;28;20111;-77
2022/04/18 04:43:40;;;;;;;10.82;3.05;;;5.20;84.80;;;;;;6220915;28;20184;-76
2022/04/18 04:46:43;;;;;;;3.95;2.28;;;5.30;84.60;;;;;;6221064;28;20050;-77
2022/04/18 04:49:45;;;;;;;3.10;1.95;;;5.40;84.00;;;;;;6220794;28;20499;-77
2022/04/18 04:52:46;;;;;;;6.38;1.92;;;5.50;83.50;;;;;;6221735;28;20053;-77
2022/04/18 04:55:49;;;;;;;4.82;2.10;;;5.60;82.90;;;;;;6220809;28;20050;-77
2022/04/18 04:58:53;;;;;;;4.65;2.47;;;5.80;82.70;;;;;;6220715;28;20042;-77
2022/04/18 05:01:56;;;;;;;3.47;1.67;;;5.90;82.40;;;;;;6225729;28;20053;-78
2022/04/18 05:04:57;;;;;;;3.22;2.63;;;6.10;81.50;;;;;;6225207;28;20057;-77
2022/04/18 05:07:59;;;;;;;5.25;2.17;;;6.30;81.30;;;;;;6225778;28;20128;-77
2022/04/18 05:11:02;;;;;;;3.38;2.35;;;6.50;80.50;;;;;;6225208;28;20053;-77
2022/04/18 05:14:04;;;;;;;2.15;1.55;;;6.70;79.60;;;;;;6225272;28;20049;-77
2022/04/18 05:17:06;;;;;;;6.18;1.48;;;7.00;78.30;;;;;;6224910;28;20084;-76
2022/04/18 05:20:09;;;;;;;4.10;2.30;;;7.20;76.90;;;;;;6225235;28;20046;-76
2022/04/18 05:23:12;;;;;;;3.55;1.73;;;7.40;76.70;;;;;;6224771;28;20054;-77
2022/04/18 05:26:15;;;;;;;6.03;1.90;;;7.50;75.30;;;;;;6224426;28;20054;-77
2022/04/18 05:29:16;;;;;;;4.47;2.38;;;7.60;74.70;;;;;;6224570;28;20042;-78
2022/04/18 05:32:18;;;;;;;6.30;1.75;;;7.80;73.90;;;;;;6225572;28;20148;-77
2022/04/18 05:35:21;;;;;;;3.92;1.90;;;8.00;73.70;;;;;;6224743;28;20089;-77
2022/04/18 05:38:23;;;;;;;4.38;1.85;;;8.20;73.20;;;;;;6224674;28;20050;-77
2022/04/18 05:41:26;;;;;;;5.20;2.05;;;8.50;72.40;;;;;;6224798;28;20052;-77
2022/04/18 05:44:28;;;;;;;2.42;1.40;;;8.80;71.40;;;;;;6225231;28;20049;-77
2022/04/18 05:47:30;;;;;;;7.18;1.88;;;9.10;70.00;;;;;;6224628;28;20700;-77
2022/04/18 05:50:32;;;;;;;5.35;1.60;;;9.70;69.00;;;;;;6224301;28;20052;-78
2022/04/18 05:53:34;;;;;;;3.72;1.60;;;11.20;64.60;;;;;;6224821;28;20044;-77
2022/04/18 05:56:37;;;;;;;5.60;1.75;;;13.20;59.10;;;;;;6225502;28;20053;-77
2022/04/18 05:59:39;;;;;;;2.42;1.27;;;15.30;51.60;;;;;;6224160;28;20050;-78
2022/04/18 06:02:40;;;;;;;2.08;1.58;;;16.00;47.30;;;;;;6224290;28;20072;-77
2022/04/18 06:05:42;;;;;;;4.18;1.83;;;15.60;47.20;;;;;;6224612;28;20042;-78
2022/04/18 06:08:44;;;;;;;3.60;2.00;;;14.80;50.10;;;;;;6224295;28;20068;-78
2022/04/18 06:11:47;;;;;;;8.15;2.33;;;14.50;50.40;;;;;;6224006;28;20646;-77
2022/04/18 06:14:49;;;;;;;4.00;2.22;;;14.20;50.40;;;;;;6224086;28;20054;-77
2022/04/18 06:17:51;;;;;;;4.97;2.13;;;14.10;51.50;;;;;;6224104;28;20038;-77
2022/04/18 06:20:52;;;;;;;2.50;1.73;;;13.90;50.70;;;;;;6224490;28;20046;-78
2022/04/18 06:23:54;;;;;;;9.20;2.65;;;13.90;51.40;;;;;;6223911;28;20528;-78
2022/04/18 06:26:58;;;;;;;8.32;3.22;;;14.20;50.50;;;;;;6222997;28;20128;-78
2022/04/18 06:29:59;;;;;;;8.05;3.03;;;14.80;49.90;;;;;;6229190;28;20125;-79
2022/04/18 06:33:01;;;;;;;5.50;1.92;;;15.90;48.40;;;;;;6233263;28;20061;-79
2022/04/18 06:36:03;;;;;;;1.67;1.13;;;17.20;43.80;;;;;;6233604;28;20050;-78
2022/04/18 06:39:06;;;;;;;3.08;1.75;;;17.70;41.30;;;;;;6231336;28;20052;-79
2022/04/18 06:42:09;;;;;;;3.17;1.73;;;17.50;40.30;;;;;;6231520;28;20139;-79
2022/04/18 06:45:11;;;;;;;4.13;1.52;;;17.20;41.40;;;;;;6230545;28;20137;-78
2022/04/18 06:48:12;;;;;;;2.08;1.40;;;17.50;40.50;;;;;;6231011;28;20752;-79
2022/04/18 06:51:14;;;;;;;2.55;1.38;;;17.90;39.30;;;;;;6230668;28;20042;-79
2022/04/18 06:54:16;;;;;;;4.50;2.58;;;18.10;39.00;;;;;;6229144;28;20508;-79
2022/04/18 06:57:19;;;;;;;4.30;2.05;;;19.10;38.50;;;;;;6226782;28;20046;-79
2022/04/18 07:00:21;;;;;;;4.43;1.73;;;20.70;36.70;;;;;;6225240;28;20069;-80
2022/04/18 07:03:22;;;;;;;2.58;1.70;;;21.50;34.00;;;;;;6224953;28;20077;-79
2022/04/18 07:06:24;;;;;;;5.28;2.05;;;21.30;33.80;;;;;;6225538;28;20056;-80
2022/04/18 07:09:26;;;;;;;4.50;2.30;;;20.90;34.30;;;;;;6227620;28;20048;-80
2022/04/18 07:12:29;;;;;;;5.20;2.03;;;20.70;33.60;;;;;;6231627;28;20050;-79
2022/04/18 07:15:32;;;;;;;4.28;1.88;;;20.20;35.60;;;;;;6230745;28;20056;-79
2022/04/18 07:18:34;;;;;;;4.05;1.55;;;20.30;35.80;;;;;;6228082;28;20044;-79
2022/04/18 07:21:36;;;;;;;2.85;1.75;;;20.50;34.80;;;;;;6230339;28;20672;-79
2022/04/18 07:24:37;;;;;;;5.82;2.08;;;20.10;33.80;;;;;;6230618;28;20504;-79
2022/04/18 07:27:40;;;;;;;2.85;1.45;;;19.50;35.00;;;;;;6211548;28;20057;-79
2022/04/18 07:30:42;;;;;;;4.32;1.90;;;19.80;34.10;;;;;;6205927;28;20051;-79
2022/04/18 07:33:44;;;;;;;3.38;2.30;;;20.10;34.20;;;;;;6206232;28;20042;-80
2022/04/18 07:36:48;;;;;;;4.45;2.45;;;20.60;33.00;;;;;;6207177;28;20492;-78
2022/04/18 07:39:50;;;;;;;7.57;2.53;;;21.30;32.90;;;;;;6204498;28;20042;-78
2022/04/18 07:42:54;;;;;;;7.10;3.33;;;22.30;31.40;;;;;;6169175;28;20055;-78
2022/04/18 07:45:55;;;;;;;7.93;2.45;;;23.10;30.10;;;;;;6220248;28;20121;-77
2022/04/18 07:48:58;;;;;;;4.60;1.67;;;23.80;29.70;;;;;;6228653;28;20049;-80
2022/04/18 07:51:59;;;;;;;2.38;1.23;;;24.90;29.10;;;;;;6231823;28;20081;-80
2022/04/18 07:55:01;;;;;;;4.72;2.08;;;25.70;28.30;;;;;;6230749;28;20113;-78
2022/04/18 07:58:05;;;;;;;2.17;1.33;;;26.80;27.60;;;;;;6228832;28;20531;-80
2022/04/18 08:01:07;;;;;;;3.75;1.35;;;28.00;27.00;;;;;;6229608;28;20117;-81
2022/04/18 08:04:09;;;;;;;2.45;1.35;;;28.90;26.40;;;;;;6231351;28;20499;-80
2022/04/18 08:07:11;;;;;;;3.55;1.75;;;29.70;25.40;;;;;;6230236;28;20050;-81
2022/04/18 08:10:12;;;;;;;5.72;1.70;;;29.40;25.30;;;;;;6227270;28;20487;-79
2022/04/18 08:13:16;;;;;;;3.95;1.42;;;29.40;25.40;;;;;;6229389;28;20132;-79
2022/04/18 08:16:18;;;;;;;5.50;1.98;;;29.40;25.30;;;;;;6227128;28;20486;-80
2022/04/18 08:19:20;;;;;;;3.45;1.70;;;30.00;25.70;;;;;;6228230;28;20612;-77
2022/04/18 08:22:22;;;;;;;4.57;1.73;;;29.60;24.80;;;;;;6229283;28;20050;-79
2022/04/18 08:25:24;;;;;;;3.63;1.50;;;29.40;25.40;;;;;;6227428;28;20057;-79
2022/04/18 08:28:28;;;;;;;5.07;1.77;;;30.10;24.70;;;;;;6219417;28;20046;-79
2022/04/18 08:31:30;;;;;;;3.00;1.60;;;29.80;24.50;;;;;;6230113;28;20144;-79
2022/04/18 08:34:31;;;;;;;2.85;1.40;;;29.10;24.60;;;;;;6231107;28;20076;-79
2022/04/18 08:37:34;;;;;;;2.22;1.23;;;28.40;25.00;;;;;;6235170;28;20038;-80
2022/04/18 08:40:38;;;;;;;2.35;1.30;;;28.20;25.00;;;;;;6233874;28;20053;-80
2022/04/18 08:43:42;;;;;;;2.97;1.80;;;27.90;25.70;;;;;;6234703;28;20081;-79
2022/04/18 08:46:44;;;;;;;5.43;1.95;;;28.70;25.20;;;;;;6228605;28;20050;-79
2022/04/18 08:53:05;;;;;;;3.42;1.38;;;29.10;25.40;;;;;;6232269;28;20133;-80
2022/04/18 08:56:07;;;;;;;1.70;1.27;;;30.20;25.10;;;;;;6232146;28;20096;-79
2022/04/18 08:59:10;;;;;;;2.92;1.60;;;30.90;24.40;;;;;;6234542;28;20094;-78
2022/04/18 09:02:12;;;;;;;3.90;1.48;;;30.10;24.00;;;;;;6232027;28;20061;-77
2022/04/18 09:05:15;;;;;;;2.75;1.23;;;29.90;24.60;;;;;;6235508;28;20049;-78
2022/04/18 09:08:17;;;;;;;5.95;1.35;;;30.40;24.30;;;;;;6234970;28;20419;-79
2022/04/18 09:11:30;;;;;;;2.38;1.23;;;30.10;24.00;;;;;;6235717;28;20046;-79
2022/04/18 09:14:36;;;;;;;1.80;1.13;;;29.50;24.40;;;;;;6233942;28;20061;-80
2022/04/18 09:17:38;;;;;;;3.28;1.40;;;28.90;24.60;;;;;;6234333;28;20038;-80
2022/04/18 09:20:42;;;;;;;2.38;1.52;;;28.50;25.40;;;;;;6234186;28;20052;-79
2022/04/18 09:23:44;;;;;;;6.43;1.80;;;28.70;25.00;;;;;;6232008;28;20056;-79
2022/04/18 09:26:46;;;;;;;1.80;1.05;;;28.30;24.30;;;;;;6232645;28;20041;-79
2022/04/18 09:30:03;;;;;;;1.50;0.88;;;27.80;24.80;;;;;;6222259;28;20581;-80
2022/04/18 09:33:07;;;;;;;3.85;1.10;;;27.80;25.10;;;;;;6232152;28;20060;-80
2022/04/18 09:36:11;;;;;;;2.15;0.90;;;27.90;25.20;;;;;;6233196;28;20129;-79
2022/04/18 09:39:24;;;;;;;2.83;1.35;;;27.90;25.00;;;;;;6232234;28;20180;-77
2022/04/18 09:42:27;;;;;;;2.92;1.65;;;28.10;24.50;;;;;;6231770;28;20419;-80
2022/04/18 09:45:31;;;;;;;4.90;1.10;;;27.40;24.80;;;;;;6229331;28;20496;-78
2022/04/18 09:48:33;;;;;;;4.97;1.60;;;27.50;24.50;;;;;;6208741;28;20420;-79
2022/04/18 09:51:37;;;;;;;1.90;1.30;;;27.30;24.10;;;;;;6230389;28;20046;-79
2022/04/18 09:54:44;;;;;;;5.10;1.35;;;26.10;24.70;;;;;;6232119;28;20137;-78
2022/04/18 09:57:47;;;;;;;9.30;1.75;;;24.40;25.90;;;;;;6232589;28;20045;-75
2022/04/18 10:00:51;;;;;;;2.38;1.05;;;22.90;26.60;;;;;;6233149;28;20082;-81
2022/04/18 10:03:54;;;;;;;3.97;1.02;;;21.70;28.10;;;;;;6231011;28;20482;-78
2022/04/18 10:06:56;;;;;;;1.83;1.10;;;21.10;28.20;;;;;;6234044;28;20049;-79
2022/04/18 10:09:58;;;;;;;3.30;1.10;;;20.90;28.40;;;;;;6231164;28;20113;-78
2022/04/18 10:13:01;;;;;;;3.33;1.45;;;20.50;28.60;;;;;;6231535;28;20077;-78
2022/04/18 10:16:05;;;;;;;2.72;1.05;;;20.30;28.60;;;;;;6232176;28;20096;-78
2022/04/18 10:19:19;;;;;;;3.42;1.13;;;20.20;28.70;;;;;;6231636;28;20042;-78
2022/04/18 10:22:46;;;;;;;1.50;0.77;;;20.30;28.90;;;;;;6232297;28;20081;-77
2022/04/18 10:26:15;;;;;;;2.53;1.05;;;20.40;29.20;;;;;;6230640;28;20042;-80
2022/04/18 10:29:21;;;;;;;1.85;1.08;;;20.60;29.30;;;;;;6225145;28;20049;-77
2022/04/18 10:32:26;;;;;;;3.97;1.00;;;20.70;28.80;;;;;;6229751;28;20194;-77
2022/04/18 10:35:28;;;;;;;3.22;0.82;;;20.40;29.30;;;;;;6231873;28;20053;-79
2022/04/18 10:38:33;;;;;;;2.53;1.50;;;20.60;28.90;;;;;;6232210;28;20124;-78
2022/04/18 10:41:37;;;;;;;4.15;1.70;;;20.40;29.30;;;;;;6231245;28;20447;-79
2022/04/18 10:44:39;;;;;;;2.67;1.10;;;20.40;29.70;;;;;;6232480;28;20057;-80
2022/04/18 10:48:18;;;;;;;2.13;0.98;;;20.60;29.90;;;;;;6209664;28;20054;-79
2022/04/18 10:51:29;;;;;;;1.52;0.98;;;21.00;29.50;;;;;;6208631;28;20062;-80
2022/04/18 10:54:31;;;;;;;2.25;1.10;;;21.20;29.00;;;;;;6210092;28;20052;-80
2022/04/18 10:57:33;;;;;;;1.77;1.30;;;21.00;28.70;;;;;;6207011;28;20042;-81
2022/04/18 11:00:46;;;;;;;2.70;1.15;;;21.00;29.10;;;;;;6205008;28;20046;-79
2022/04/18 11:03:57;;;;;;;1.80;0.88;;;21.30;29.10;;;;;;6204154;28;20419;-80
2022/04/18 11:07:02;;;;;;;3.20;0.90;;;21.50;28.80;;;;;;6204482;28;20411;-78
2022/04/18 11:10:19;;;;;;;2.25;0.98;;;21.70;28.70;;;;;;6220733;28;20052;-79
2022/04/18 11:13:26;;;;;;;5.47;1.67;;;21.80;28.30;;;;;;6229126;28;20052;-79
2022/04/18 11:16:47;;;;;;;4.63;1.73;;;21.70;28.30;;;;;;6229233;28;20475;-79
2022/04/18 11:19:49;;;;;;;2.33;1.10;;;22.00;29.20;;;;;;6229188;28;20045;-79
2022/04/18 11:23:23;;;;;;;2.42;0.98;;;22.60;28.10;;;;;;6228735;28;20430;-78
2022/04/18 11:26:28;;;;;;;2.38;1.20;;;22.70;27.40;;;;;;6227528;28;20113;-77
2022/04/18 11:29:31;;;;;;;2.10;0.90;;;22.00;27.20;;;;;;6228437;28;20042;-78
2022/04/18 11:32:36;;;;;;;3.17;1.17;;;21.90;28.20;;;;;;6214678;28;20050;-77
2022/04/18 11:35:38;;;;;;;3.47;1.05;;;21.80;28.00;;;;;;6203415;28;20058;-79
2022/04/18 11:38:42;;;;;;;3.53;1.05;;;21.90;28.30;;;;;;6202643;28;20046;-80
2022/04/18 11:41:44;;;;;;;3.88;1.30;;;22.00;28.00;;;;;;6202308;28;20049;-78
2022/04/18 11:44:47;;;;;;;3.20;0.80;;;22.10;28.50;;;;;;6219573;28;20425;-78
2022/04/18 11:47:49;;;;;;;1.85;1.08;;;22.30;28.00;;;;;;6220099;28;20406;-78
2022/04/18 11:50:51;;;;;;;1.58;0.77;;;22.30;28.20;;;;;;6227571;28;20057;-79
2022/04/18 11:54:02;;;;;;;2.63;1.10;;;22.40;28.60;;;;;;6227000;28;20056;-80
2022/04/18 11:57:04;;;;;;;2.13;0.80;;;22.40;28.10;;;;;;6226623;28;20050;-78
2022/04/18 12:00:08;;;;;;;1.40;0.70;;;22.20;28.00;;;;;;6227904;28;20155;-79
2022/04/18 12:06:46;;;;;;;3.17;1.27;;;22.20;27.70;;;;;;6227003;28;20049;-80
2022/04/18 12:09:49;;;;;;;2.08;1.20;;;22.00;28.70;;;;;;6225493;28;20041;-78
2022/04/18 12:12:51;;;;;;;3.33;0.90;;;22.30;29.00;;;;;;6227980;28;20057;-78
2022/04/18 12:15:53;;;;;;;1.77;0.93;;;22.60;28.50;;;;;;6224750;28;20053;-79
2022/04/18 12:18:57;;;;;;;2.17;1.15;;;22.40;28.20;;;;;;6226846;28;20057;-78
2022/04/18 12:21:58;;;;;;;4.25;1.30;;;22.40;28.70;;;;;;6226340;28;20132;-78
2022/04/18 12:25:01;;;;;;;3.35;1.58;;;22.40;29.10;;;;;;6225636;28;20415;-78
2022/04/18 12:28:06;;;;;;;3.45;1.27;;;22.50;29.50;;;;;;6226672;28;20500;-77
2022/04/18 12:31:10;;;;;;;3.10;1.42;;;22.70;28.80;;;;;;6225385;28;20125;-77
2022/04/18 12:34:17;;;;;;;3.47;1.33;;;22.80;28.60;;;;;;6226292;28;20057;-79
2022/04/18 12:37:19;;;;;;;4.55;0.95;;;22.80;28.10;;;;;;6226459;28;20046;-79
2022/04/18 12:40:22;;;;;;;3.38;1.65;;;22.70;28.70;;;;;;6225709;28;20519;-78
2022/04/18 12:43:28;;;;;;;3.88;1.75;;;22.80;28.70;;;;;;6225771;28;20046;-78
2022/04/18 12:46:31;;;;;;;2.63;1.48;;;22.80;29.30;;;;;;6225038;28;20050;-77
2022/04/18 12:49:33;;;;;;;2.60;1.35;;;22.70;29.40;;;;;;6227690;28;20041;-79
2022/04/18 12:52:35;;;;;;;2.63;1.40;;;22.70;29.60;;;;;;6227936;28;20053;-79
2022/04/18 12:55:38;;;;;;;3.72;1.35;;;22.90;29.60;;;;;;6227344;28;20425;-78
2022/04/18 12:58:43;;;;;;;3.40;1.63;;;23.00;29.60;;;;;;6227681;28;20149;-79
2022/04/18 13:01:45;;;;;;;7.68;1.48;;;23.10;29.60;;;;;;6228382;28;20041;-78
2022/04/18 13:04:59;;;;;;;3.17;1.60;;;22.80;29.60;;;;;;6228770;28;20432;-79
2022/04/18 13:08:02;;;;;;;2.30;1.38;;;22.90;29.80;;;;;;6228395;28;20524;-79
2022/04/18 13:11:06;;;;;;;3.38;1.40;;;23.50;29.20;;;;;;6228803;28;20526;-79
2022/04/18 13:14:09;;;;;;;6.05;1.98;;;23.70;28.50;;;;;;6227827;28;20052;-79
2022/04/18 13:17:12;;;;;;;5.53;1.88;;;23.20;29.10;;;;;;6226437;28;20049;-78
2022/04/18 13:20:13;;;;;;;3.63;2.08;;;22.70;29.70;;;;;;6226365;28;20068;-79
2022/04/18 13:23:15;;;;;;;5.07;2.30;;;22.70;29.80;;;;;;6229072;28;20046;-77
2022/04/18 13:26:19;;;;;;;7.53;2.00;;;23.10;30.00;;;;;;6229229;28;20452;-79
2022/04/18 13:29:20;;;;;;;4.15;1.65;;;23.70;29.60;;;;;;6230400;28;20046;-79
2022/04/18 13:32:24;;;;;;;4.40;1.42;;;24.00;29.00;;;;;;6230068;28;20129;-78
2022/04/18 13:35:26;;;;;;;3.88;2.17;;;23.80;28.80;;;;;;6225930;28;20050;-80
2022/04/18 13:38:28;;;;;;;6.30;2.28;;;23.50;28.70;;;;;;6230759;28;20129;-77
2022/04/18 13:41:31;;;;;;;4.97;2.00;;;23.50;29.20;;;;;;6230741;28;20589;-79
2022/04/18 13:44:33;;;;;;;3.40;1.70;;;23.40;29.10;;;;;;6234117;28;20050;-78
2022/04/18 13:47:35;;;;;;;4.10;2.28;;;23.40;29.20;;;;;;6231617;28;20077;-79
2022/04/18 13:50:37;;;;;;;3.70;1.70;;;23.60;29.20;;;;;;6232940;28;20050;-78
2022/04/18 13:53:39;;;;;;;3.10;1.95;;;23.60;29.30;;;;;;6232556;28;20495;-79
2022/04/18 13:56:42;;;;;;;4.35;2.22;;;23.60;29.30;;;;;;6233792;28;20054;-79
2022/04/18 13:59:44;;;;;;;4.75;2.03;;;23.50;29.60;;;;;;6232371;28;20099;-80
2022/04/18 14:02:46;;;;;;;4.68;2.03;;;23.90;28.80;;;;;;6232851;28;20173;-79
2022/04/18 14:05:48;;;;;;;4.22;1.63;;;23.80;28.70;;;;;;6232557;28;20128;-79
2022/04/18 14:08:49;;;;;;;4.18;1.95;;;23.90;28.90;;;;;;6233465;28;20140;-79
2022/04/18 14:11:52;;;;;;;1.92;1.20;;;23.50;28.70;;;;;;6233347;28;20180;-78
2022/04/18 14:21:33;;;;;;;5.85;1.90;;;23.30;29.10;;;;;;6239314;28;20054;-77
2022/04/18 14:24:35;;;;;;;2.90;1.60;;;23.30;29.00;;;;;;6239329;28;20092;-79
2022/04/18 14:27:38;;;;;;;2.38;1.13;;;23.00;29.10;;;;;;6238921;28;20137;-77
2022/04/18 14:30:40;;;;;;;7.78;1.40;;;22.50;29.70;;;;;;6235141;28;20073;-79
2022/04/18 14:33:42;;;;;;;4.55;1.67;;;22.40;29.60;;;;;;6228152;28;20060;-79
2022/04/18 14:36:44;;;;;;;2.55;1.33;;;22.50;30.00;;;;;;6231087;28;20050;-80
2022/04/18 14:39:46;;;;;;;3.38;1.55;;;22.50;29.90;;;;;;6231951;28;20060;-80
2022/04/18 14:42:49;;;;;;;2.38;1.45;;;22.40;29.90;;;;;;6232410;28;20046;-80
2022/04/18 14:45:51;;;;;;;4.20;2.53;;;22.20;29.70;;;;;;6232394;28;20100;-79
2022/04/18 14:48:54;;;;;;;4.55;1.88;;;22.00;30.10;;;;;;6232770;28;20065;-79
2022/04/18 14:51:56;;;;;;;3.30;1.40;;;21.90;30.20;;;;;;6232246;28;20451;-79
2022/04/18 14:54:58;;;;;;;2.55;1.25;;;21.70;30.20;;;;;;6232868;28;20403;-78
2022/04/18 14:58:01;;;;;;;5.78;1.67;;;21.50;30.80;;;;;;6231358;28;20045;-80
2022/04/18 15:01:04;;;;;;;5.93;1.77;;;21.30;30.70;;;;;;6228423;28;20050;-79
2022/04/18 15:04:06;;;;;;;4.00;1.48;;;21.20;31.00;;;;;;6230222;28;20079;-79
2022/04/18 15:07:08;;;;;;;3.25;1.73;;;21.30;31.30;;;;;;6229330;28;20085;-79
2022/04/18 15:10:10;;;;;;;2.72;1.20;;;21.50;30.80;;;;;;6230250;28;20052;-79
2022/04/18 15:13:13;;;;;;;2.53;1.20;;;21.70;30.70;;;;;;6231192;28;20046;-81
2022/04/18 15:16:15;;;;;;;5.78;1.38;;;22.10;30.80;;;;;;6230553;28;20054;-78
2022/04/18 15:19:18;;;;;;;2.45;1.17;;;21.90;30.30;;;;;;6230641;28;20108;-81
2022/04/18 15:22:20;;;;;;;5.70;1.77;;;21.70;30.50;;;;;;6230197;28;20050;-80
2022/04/18 15:25:21;;;;;;;2.67;1.48;;;21.70;30.90;;;;;;6230081;28;20052;-80
2022/04/18 15:28:25;;;;;;;4.00;1.30;;;21.80;30.80;;;;;;6230628;28;20144;-80
2022/04/18 15:34:45;;;;;;;2.53;1.50;;;22.00;30.20;;;;;;6226083;28;20053;-79
2022/04/18 15:37:48;;;;;;;3.30;1.52;;;22.00;30.10;;;;;;6229273;28;20057;-78
2022/04/18 15:40:50;;;;;;;2.85;1.70;;;21.70;30.20;;;;;;6229670;28;20046;-80
2022/04/18 15:43:53;;;;;;;1.83;1.00;;;21.40;30.50;;;;;;6227896;28;20062;-79
2022/04/18 15:46:57;;;;;;;3.67;1.30;;;21.30;31.10;;;;;;6229939;28;20134;-79
2022/04/18 15:49:59;;;;;;;3.50;1.15;;;21.20;30.90;;;;;;6229030;28;20621;-80
2022/04/18 15:53:00;;;;;;;3.50;1.17;;;20.90;31.30;;;;;;6229117;28;20046;-80
2022/04/18 15:56:03;;;;;;;4.72;1.20;;;20.70;31.70;;;;;;6230464;28;20053;-79
2022/04/18 15:59:06;;;;;;;2.38;1.10;;;20.60;32.00;;;;;;6229229;28;20415;-79
2022/04/18 16:02:09;;;;;;;2.47;1.13;;;20.40;32.20;;;;;;6230152;28;20050;-79
2022/04/18 16:05:13;;;;;;;2.80;1.58;;;20.20;32.30;;;;;;6229340;28;20518;-80
2022/04/18 16:08:15;;;;;;;3.20;1.73;;;20.10;32.60;;;;;;6229762;28;20114;-80
2022/04/18 16:11:16;;;;;;;2.45;1.48;;;19.90;32.90;;;;;;6228672;28;20064;-80
2022/04/18 16:14:20;;;;;;;5.03;1.38;;;19.70;32.80;;;;;;6223919;28;20057;-80
2022/04/18 16:17:21;;;;;;;1.60;0.85;;;19.60;33.20;;;;;;6209541;28;20598;-80
2022/04/18 16:20:23;;;;;;;2.85;1.10;;;19.60;33.30;;;;;;6229199;28;20060;-81